createdAt,value
2018-11-06T00:00:49.304Z,24.50
2018-11-06T00:03:16.758Z,21.93
2018-11-06T00:05:44.220Z,23.97
2018-11-06T00:08:11.676Z,18.13
2018-11-06T00:10:39.235Z,22.73
2018-11-06T00:13:06.800Z,24.27
2018-11-06T00:15:34.261Z,20.77
2018-11-06T00:18:01.733Z,20.57
2018-11-06T00:20:29.196Z,24.05
2018-11-06T00:22:56.655Z,21.53
2018-11-06T00:25:24.117Z,20.60
2018-11-06T00:27:52.366Z,24.17
2018-11-06T00:30:19.849Z,19.37
2018-11-06T00:32:47.414Z,21.87
2018-11-06T00:35:14.970Z,21.17
2018-11-06T00:37:42.448Z,24.60
2018-11-06T00:40:09.918Z,20.23
2018-11-06T00:42:37.391Z,18.80
2018-11-06T00:45:05.653Z,20.37
2018-11-06T00:47:33.209Z,18.27
2018-11-06T00:50:00.768Z,20.00
2018-11-06T00:52:28.338Z,23.90
2018-11-06T00:54:55.901Z,20.30
2018-11-06T00:57:23.459Z,20.57
2018-11-06T00:59:51.739Z,19.63
2018-11-06T01:02:20.032Z,24.17
2018-11-06T01:04:48.307Z,21.93
2018-11-06T01:07:15.816Z,19.97
2018-11-06T01:09:43.242Z,20.43
2018-11-06T01:12:11.464Z,17.93
2018-11-06T01:14:38.931Z,19.77
2018-11-06T01:17:06.400Z,20.97
2018-11-06T01:19:34.016Z,17.50
2018-11-06T01:22:01.470Z,20.93
2018-11-06T01:24:29.691Z,24.00
2018-11-06T01:26:57.160Z,21.50
2018-11-06T01:29:24.626Z,22.37
2018-11-06T01:31:52.127Z,22.43
2018-11-06T01:34:19.688Z,21.20
2018-11-06T01:36:47.157Z,21.67
2018-11-06T01:39:14.615Z,24.07
2018-11-06T01:41:42.094Z,24.47
2018-11-06T01:44:09.644Z,19.00
2018-11-06T01:46:37.097Z,18.73
2018-11-06T01:49:04.672Z,25.77
2018-11-06T01:51:32.227Z,20.80
2018-11-06T01:53:59.691Z,21.17
2018-11-06T01:56:27.168Z,18.13
2018-11-06T01:58:54.706Z,19.30
2018-11-06T02:01:22.180Z,19.03
2018-11-06T02:03:49.743Z,21.87
2018-11-06T02:06:17.310Z,21.07
2018-11-06T02:08:44.874Z,20.93
2018-11-06T02:11:12.437Z,20.10
2018-11-06T02:13:40.005Z,19.47
2018-11-06T02:16:08.259Z,22.10
2018-11-06T02:18:35.740Z,20.00
2018-11-06T02:21:04.735Z,19.10
2018-11-06T02:23:32.230Z,20.57
2018-11-06T02:26:00.452Z,20.60
2018-11-06T02:28:27.902Z,22.27
2018-11-06T02:30:55.381Z,22.03
2018-11-06T02:33:22.844Z,18.27
2018-11-06T02:35:50.305Z,20.77
2018-11-06T02:38:17.777Z,18.57
2018-11-06T02:40:45.252Z,17.10
2018-11-06T02:43:12.718Z,16.67
2018-11-06T02:45:40.174Z,18.73
2018-11-06T02:48:07.747Z,19.00
2018-11-06T02:50:35.216Z,22.47
2018-11-06T02:53:02.669Z,23.43
2018-11-06T02:55:30.231Z,17.63
2018-11-06T02:57:57.794Z,18.27
2018-11-06T03:00:25.261Z,16.47
2018-11-06T03:02:52.731Z,16.70
2018-11-06T03:05:22.167Z,18.07
2018-11-06T03:07:49.687Z,14.57
2018-11-06T03:10:17.262Z,19.77
2018-11-06T03:12:44.839Z,20.20
2018-11-06T03:15:12.302Z,18.90
2018-11-06T03:17:39.755Z,23.53
2018-11-06T03:20:07.976Z,20.73
2018-11-06T03:22:35.540Z,19.17
2018-11-06T03:25:04.454Z,15.77
2018-11-06T03:27:31.948Z,14.93
2018-11-06T03:29:59.508Z,20.43
2018-11-06T03:32:26.975Z,16.97
2018-11-06T03:34:55.207Z,17.67
2018-11-06T03:37:22.666Z,15.00
2018-11-06T03:39:50.129Z,20.40
2018-11-06T03:42:17.592Z,18.30
2018-11-06T03:44:45.056Z,18.60
2018-11-06T03:47:12.527Z,17.43
2018-11-06T03:49:39.981Z,18.30
2018-11-06T03:52:07.457Z,24.33
2018-11-06T03:54:34.905Z,17.50
2018-11-06T03:57:02.368Z,18.03
2018-11-06T03:59:29.835Z,23.03
2018-11-06T04:01:57.333Z,18.13
2018-11-06T04:04:24.895Z,22.13
2018-11-06T04:06:52.354Z,19.83
2018-11-06T04:09:19.811Z,15.30
2018-11-06T04:11:47.389Z,17.23
2018-11-06T04:14:14.952Z,12.83
2018-11-06T04:16:42.505Z,18.70
2018-11-06T04:19:09.961Z,20.73
2018-11-06T04:21:37.439Z,19.60
2018-11-06T04:24:05.002Z,18.27
2018-11-06T04:26:32.468Z,19.50
2018-11-06T04:28:59.930Z,15.93
2018-11-06T04:31:27.483Z,21.63
2018-11-06T04:33:55.061Z,23.10
2018-11-06T04:36:22.528Z,20.40
2018-11-06T04:38:50.791Z,19.10
2018-11-06T04:41:18.359Z,22.60
2018-11-06T04:43:45.827Z,21.87
2018-11-06T04:46:13.386Z,21.37
2018-11-06T04:48:40.951Z,14.53
2018-11-06T04:51:08.407Z,16.70
2018-11-06T04:53:36.631Z,19.70
2018-11-06T04:56:04.087Z,18.63
2018-11-06T04:58:32.424Z,16.07
2018-11-06T05:00:59.900Z,18.40
2018-11-06T05:03:27.451Z,21.93
2018-11-06T05:05:55.020Z,18.20
2018-11-06T05:08:22.473Z,19.50
2018-11-06T05:10:50.044Z,18.83
2018-11-06T05:13:17.495Z,18.57
2018-11-06T05:15:44.963Z,19.43
2018-11-06T05:18:12.537Z,16.70
2018-11-06T05:20:40.091Z,19.80
2018-11-06T05:23:07.667Z,20.10
2018-11-06T05:25:35.175Z,19.57
2018-11-06T05:28:03.766Z,22.03
2018-11-06T05:30:31.275Z,19.93
2018-11-06T05:32:58.905Z,19.90
2018-11-06T05:35:26.303Z,18.57
2018-11-06T05:37:53.763Z,19.77
2018-11-06T05:40:33.302Z,19.00
2018-11-06T05:43:00.857Z,19.57
2018-11-06T05:45:28.341Z,19.97
2018-11-06T05:47:55.812Z,19.00
2018-11-06T05:50:24.074Z,19.93
2018-11-06T05:52:51.533Z,18.43
2018-11-06T05:55:18.995Z,21.30
2018-11-06T05:57:46.553Z,19.30
2018-11-06T06:00:14.147Z,18.83
2018-11-06T06:02:41.592Z,17.63
2018-11-06T06:05:09.050Z,15.10
2018-11-06T06:07:36.520Z,16.97
2018-11-06T06:10:05.495Z,23.27
2018-11-06T06:12:32.949Z,19.03
2018-11-06T06:15:00.413Z,18.30
2018-11-06T06:17:27.987Z,21.37
2018-11-06T06:19:55.551Z,18.87
2018-11-06T06:22:23.030Z,20.40
2018-11-06T06:24:50.475Z,16.90
2018-11-06T06:27:18.051Z,19.83
2018-11-06T06:29:45.515Z,19.73
2018-11-06T06:32:12.982Z,20.33
2018-11-06T06:34:40.540Z,19.50
2018-11-06T06:37:08.707Z,18.03
2018-11-06T06:39:36.178Z,17.73
2018-11-06T06:42:04.746Z,20.50
2018-11-06T06:44:32.216Z,19.10
2018-11-06T06:46:59.669Z,16.70
2018-11-06T06:49:27.245Z,19.00
2018-11-06T06:51:54.699Z,17.97
2018-11-06T06:54:22.310Z,20.57
2018-11-06T06:56:49.670Z,18.93
2018-11-06T06:59:17.875Z,21.57
2018-11-06T07:01:45.354Z,19.70
2018-11-06T07:04:12.811Z,18.07
2018-11-06T07:06:40.291Z,19.33
2018-11-06T07:09:07.761Z,19.43
2018-11-06T07:11:35.328Z,17.17
2018-11-06T07:14:02.883Z,19.00
2018-11-06T07:16:30.452Z,19.30
2018-11-06T07:18:58.016Z,21.70
2018-11-06T07:21:25.579Z,20.40
2018-11-06T07:23:53.148Z,20.37
2018-11-06T07:26:20.746Z,17.03
2018-11-06T07:28:49.066Z,21.30
2018-11-06T07:31:16.455Z,23.77
2018-11-06T07:33:43.907Z,18.43
2018-11-06T07:36:11.378Z,16.97
2018-11-06T07:38:39.378Z,16.20
2018-11-06T07:41:06.961Z,18.73
2018-11-06T07:43:35.081Z,18.50
2018-11-06T07:46:02.527Z,17.83
2018-11-06T07:48:29.992Z,16.97
2018-11-06T07:50:57.471Z,15.10
2018-11-06T07:53:24.925Z,18.30
2018-11-06T07:55:52.485Z,16.17
2018-11-06T07:58:20.168Z,16.87
2018-11-06T08:00:47.620Z,17.90
2018-11-06T08:03:15.092Z,16.70
2018-11-06T08:05:42.652Z,17.50
2018-11-06T08:08:10.123Z,19.37
2018-11-06T08:10:37.594Z,16.87
2018-11-06T08:13:05.153Z,15.87
2018-11-06T08:15:32.614Z,16.57
2018-11-06T08:18:00.214Z,17.93
2018-11-06T08:20:28.407Z,15.27
2018-11-06T08:22:55.877Z,15.90
2018-11-06T08:25:23.379Z,16.27
2018-11-06T08:27:50.964Z,17.33
2018-11-06T08:30:19.922Z,18.93
2018-11-06T08:32:47.795Z,17.37
2018-11-06T08:35:14.866Z,14.93
2018-11-06T08:37:42.317Z,16.13
2018-11-06T08:40:09.781Z,16.23
2018-11-06T08:42:37.420Z,16.30
2018-11-06T08:45:04.740Z,22.30
2018-11-06T08:47:32.985Z,17.20
2018-11-06T08:50:00.549Z,17.30
2018-11-06T08:52:28.007Z,22.27
2018-11-06T08:54:55.579Z,13.87
2018-11-06T08:57:23.097Z,14.93
2018-11-06T08:59:50.567Z,16.53
2018-11-06T09:02:18.071Z,13.70
2018-11-06T09:04:45.567Z,15.67
2018-11-06T09:07:13.816Z,16.00
2018-11-06T09:09:41.275Z,14.97
2018-11-06T09:12:08.736Z,15.60
2018-11-06T09:14:36.293Z,16.03
2018-11-06T09:17:04.647Z,15.43
2018-11-06T09:19:32.019Z,16.27
2018-11-06T09:21:59.594Z,16.27
2018-11-06T09:24:27.064Z,17.23
2018-11-06T09:26:54.841Z,16.10
2018-11-06T09:29:22.390Z,14.93
2018-11-06T09:31:49.965Z,18.10
2018-11-06T09:34:18.207Z,14.90
2018-11-06T09:36:45.677Z,20.10
2018-11-06T09:39:14.051Z,16.00
2018-11-06T09:41:41.546Z,17.60
2018-11-06T09:44:09.107Z,15.43
2018-11-06T09:46:36.671Z,15.97
2018-11-06T09:49:04.245Z,18.07
2018-11-06T09:51:31.728Z,16.80
2018-11-06T09:53:59.983Z,17.50
2018-11-06T09:56:27.451Z,19.43
2018-11-06T09:58:54.928Z,13.00
2018-11-06T10:01:22.471Z,17.07
2018-11-06T10:03:49.944Z,15.60
2018-11-06T10:06:17.532Z,14.73
2018-11-06T10:08:45.646Z,17.40
2018-11-06T10:11:13.144Z,17.60
2018-11-06T10:13:40.709Z,15.27
2018-11-06T10:16:08.170Z,16.33
2018-11-06T10:18:35.636Z,13.97
2018-11-06T10:21:04.418Z,18.23
2018-11-06T10:23:31.859Z,13.33
2018-11-06T10:25:59.329Z,16.60
2018-11-06T10:28:26.800Z,16.40
2018-11-06T10:30:54.350Z,18.37
2018-11-06T10:33:21.825Z,17.60
2018-11-06T10:35:49.297Z,16.50
2018-11-06T10:38:16.830Z,16.93
2018-11-06T10:40:44.227Z,15.93
2018-11-06T10:43:11.698Z,15.80
2018-11-06T10:45:39.171Z,14.07
2018-11-06T10:48:07.426Z,14.10
2018-11-06T10:50:34.985Z,15.80
2018-11-06T10:53:02.567Z,14.60
2018-11-06T10:55:30.024Z,15.43
2018-11-06T10:57:57.587Z,13.57
2018-11-06T11:00:25.056Z,14.07
2018-11-06T11:02:53.291Z,16.90
2018-11-06T11:05:20.776Z,14.77
2018-11-06T11:07:48.343Z,13.17
2018-11-06T11:10:15.812Z,14.43
2018-11-06T11:12:43.283Z,15.53
2018-11-06T11:15:10.749Z,14.47
2018-11-06T11:17:38.298Z,13.43
2018-11-06T11:20:07.319Z,14.60
2018-11-06T11:22:34.730Z,16.30
2018-11-06T11:25:02.317Z,11.83
2018-11-06T11:27:29.794Z,14.47
2018-11-06T11:29:57.253Z,16.07
2018-11-06T11:32:24.715Z,13.03
2018-11-06T11:34:52.181Z,13.20
2018-11-06T11:37:19.728Z,13.10
2018-11-06T11:39:47.301Z,15.20
2018-11-06T11:42:14.764Z,18.07
2018-11-06T11:44:42.332Z,11.30
2018-11-06T11:47:09.886Z,16.77
2018-11-06T11:49:37.443Z,21.07
2018-11-06T11:52:04.915Z,18.33
2018-11-06T11:54:33.903Z,14.07
2018-11-06T11:57:01.375Z,18.53
2018-11-06T11:59:28.936Z,13.07
2018-11-06T12:01:57.213Z,16.40
2018-11-06T12:04:24.775Z,14.47
2018-11-06T12:06:52.350Z,13.67
2018-11-06T12:09:19.805Z,13.03
2018-11-06T12:11:47.273Z,12.23
2018-11-06T12:14:14.827Z,14.40
2018-11-06T12:16:42.300Z,17.83
2018-11-06T12:19:09.773Z,12.07
2018-11-06T12:21:37.333Z,13.33
2018-11-06T12:24:04.932Z,15.70
2018-11-06T12:26:32.363Z,12.53
2018-11-06T12:28:59.915Z,13.77
2018-11-06T12:31:27.390Z,12.80
2018-11-06T12:33:55.616Z,16.33
2018-11-06T12:36:23.115Z,16.33
2018-11-06T12:38:50.586Z,12.97
2018-11-06T12:41:18.140Z,11.43
2018-11-06T12:43:47.122Z,10.23
2018-11-06T12:46:14.603Z,11.23
2018-11-06T12:48:43.597Z,13.27
2018-11-06T12:51:11.359Z,16.23
2018-11-06T12:53:38.816Z,13.43
2018-11-06T12:56:06.393Z,13.37
2018-11-06T12:58:33.863Z,11.73
2018-11-06T13:01:01.335Z,12.37
2018-11-06T13:03:28.919Z,13.13
2018-11-06T13:05:56.367Z,12.13
2018-11-06T13:08:24.620Z,10.40
2018-11-06T13:10:52.079Z,11.43
2018-11-06T13:13:19.650Z,10.77
2018-11-06T13:15:47.299Z,10.90
2018-11-06T13:18:14.677Z,11.27
2018-11-06T13:20:42.965Z,10.73
2018-11-06T13:23:10.426Z,8.80
2018-11-06T13:25:38.052Z,8.90
2018-11-06T13:28:05.554Z,9.33
2018-11-06T13:30:33.071Z,10.93
2018-11-06T13:33:02.110Z,10.57
2018-11-06T13:35:29.570Z,8.43
2018-11-06T13:37:57.133Z,9.50
2018-11-06T13:40:24.606Z,10.20
2018-11-06T13:42:52.269Z,8.80
2018-11-06T13:45:19.726Z,9.30
2018-11-06T13:47:47.169Z,8.07
2018-11-06T13:50:14.632Z,10.60
2018-11-06T13:52:42.095Z,9.43
2018-11-06T13:55:09.572Z,8.50
2018-11-06T13:57:37.043Z,9.23
2018-11-06T14:00:04.511Z,9.43
2018-11-06T14:02:33.596Z,10.47
2018-11-06T14:05:01.162Z,8.47
2018-11-06T14:07:28.650Z,7.40
2018-11-06T14:09:56.925Z,7.80
2018-11-06T14:12:24.477Z,8.20
2018-11-06T14:14:51.944Z,6.67
2018-11-06T14:17:19.506Z,7.67
2018-11-06T14:19:47.064Z,8.87
2018-11-06T14:22:14.583Z,8.87
2018-11-06T14:24:42.082Z,6.63
2018-11-06T14:27:09.627Z,8.97
2018-11-06T14:29:37.033Z,6.63
2018-11-06T14:32:05.291Z,6.10
2018-11-06T14:34:32.758Z,7.73
2018-11-06T14:37:00.211Z,7.73
2018-11-06T14:39:27.702Z,7.10
2018-11-06T14:41:55.247Z,9.03
2018-11-06T14:44:22.720Z,8.97
2018-11-06T14:46:50.176Z,6.83
2018-11-06T14:49:17.693Z,7.10
2018-11-06T14:51:45.899Z,6.43
2018-11-06T14:54:13.359Z,7.40
2018-11-06T14:56:40.838Z,7.10
2018-11-06T14:59:08.309Z,8.68
2018-11-06T15:01:36.213Z,8.30
2018-11-06T15:04:04.736Z,9.23
2018-11-06T15:06:32.208Z,10.17
2018-11-06T15:08:59.685Z,8.20
2018-11-06T15:11:27.243Z,8.77
2018-11-06T15:13:54.715Z,6.80
2018-11-06T15:16:23.046Z,7.90
2018-11-06T15:18:50.549Z,11.33
2018-11-06T15:21:18.028Z,10.10
2018-11-06T15:23:45.578Z,9.60
2018-11-06T15:26:13.071Z,10.67
2018-11-06T15:28:41.359Z,8.83
2018-11-06T15:31:09.696Z,10.47
2018-11-06T15:33:37.273Z,9.97
2018-11-06T15:36:06.242Z,15.20
2018-11-06T15:38:34.002Z,9.70
2018-11-06T15:41:01.604Z,11.43
2018-11-06T15:43:29.348Z,13.13
2018-11-06T15:45:56.823Z,15.70
2018-11-06T15:48:24.308Z,13.50
2018-11-06T15:50:52.571Z,12.10
2018-11-06T15:53:20.032Z,13.40
2018-11-06T15:55:47.511Z,15.77
2018-11-06T15:58:15.057Z,13.37
2018-11-06T16:00:42.540Z,13.27
2018-11-06T16:03:10.094Z,13.93
2018-11-06T16:05:37.557Z,16.60
2018-11-06T16:08:05.149Z,14.07
2018-11-06T16:10:33.080Z,13.30
2018-11-06T16:13:00.548Z,15.23
2018-11-06T16:15:28.851Z,12.73
2018-11-06T16:17:56.266Z,15.27
2018-11-06T16:20:23.741Z,18.00
2018-11-06T16:22:51.209Z,15.83
2018-11-06T16:25:19.040Z,13.50
2018-11-06T16:27:46.503Z,13.63
2018-11-06T16:30:14.067Z,16.13
2018-11-06T16:32:41.610Z,15.10
2018-11-06T16:35:09.041Z,12.47
2018-11-06T16:37:36.508Z,12.77
2018-11-06T16:40:03.971Z,16.23
2018-11-06T16:42:31.431Z,14.93
2018-11-06T16:44:58.899Z,12.20
2018-11-06T16:47:26.451Z,11.80
2018-11-06T16:49:53.955Z,15.03
2018-11-06T16:52:21.436Z,11.10
2018-11-06T16:54:48.937Z,14.87
2018-11-06T16:57:16.560Z,12.97
2018-11-06T16:59:44.120Z,14.17
2018-11-06T17:02:11.535Z,14.57
2018-11-06T17:04:39.098Z,10.00
2018-11-06T17:07:06.559Z,13.10
2018-11-06T17:09:34.116Z,10.10
2018-11-06T17:12:01.568Z,13.43
2018-11-06T17:14:29.147Z,10.90
2018-11-06T17:16:56.615Z,12.17
2018-11-06T17:19:24.169Z,16.57
2018-11-06T17:21:51.631Z,9.93
2018-11-06T17:24:19.104Z,17.20
2018-11-06T17:26:46.669Z,12.37
2018-11-06T17:29:14.228Z,11.07
2018-11-06T17:31:41.693Z,14.60
2018-11-06T17:34:09.159Z,11.33
2018-11-06T17:36:36.626Z,12.83
2018-11-06T17:39:04.095Z,10.13
2018-11-06T17:41:32.324Z,12.73
2018-11-06T17:43:59.807Z,10.10
2018-11-06T17:46:27.372Z,13.90
2018-11-06T17:48:55.597Z,11.83
2018-11-06T17:51:23.848Z,11.07
2018-11-06T17:53:51.324Z,13.47
2018-11-06T17:56:19.552Z,10.33
2018-11-06T17:58:47.044Z,10.83
2018-11-06T18:01:14.519Z,12.67
2018-11-06T18:03:43.521Z,15.57
2018-11-06T18:06:10.964Z,10.30
2018-11-06T18:08:38.536Z,11.87
2018-11-06T18:11:05.991Z,12.40
2018-11-06T18:13:33.545Z,12.10
2018-11-06T18:16:01.125Z,13.40
2018-11-06T18:18:28.680Z,13.00
2018-11-06T18:20:56.131Z,13.80
2018-11-06T18:23:23.595Z,10.33
2018-11-06T18:25:51.306Z,14.13
2018-11-06T18:28:18.657Z,12.43
2018-11-06T18:30:47.820Z,13.30
2018-11-06T18:33:15.247Z,12.93
2018-11-06T18:35:42.753Z,13.00
2018-11-06T18:38:10.333Z,12.70
2018-11-06T18:40:37.891Z,15.17
2018-11-06T18:43:05.367Z,13.50
2018-11-06T18:45:32.834Z,15.03
2018-11-06T18:48:01.093Z,15.23
2018-11-06T18:50:28.657Z,14.90
2018-11-06T18:52:56.123Z,15.63
2018-11-06T18:55:23.605Z,12.90
2018-11-06T18:57:51.872Z,11.63
2018-11-06T19:00:20.859Z,12.03
2018-11-06T19:02:48.313Z,13.87
2018-11-06T19:05:15.771Z,15.33
2018-11-06T19:07:43.344Z,12.87
2018-11-06T19:10:10.804Z,15.80
2018-11-06T19:12:39.126Z,12.47
2018-11-06T19:15:07.375Z,13.20
2018-11-06T19:17:34.933Z,15.80
2018-11-06T19:20:02.405Z,16.17
2018-11-06T19:22:29.873Z,12.63
2018-11-06T19:24:57.423Z,12.83
2018-11-06T19:27:24.905Z,13.60
2018-11-06T19:29:52.451Z,13.83
2018-11-06T19:32:19.913Z,14.53
2018-11-06T19:34:47.375Z,16.93
2018-11-06T19:37:14.835Z,15.77
2018-11-06T19:39:42.305Z,16.20
2018-11-06T19:42:10.538Z,15.27
2018-11-06T19:44:38.759Z,13.00
2018-11-06T19:47:06.231Z,16.47
2018-11-06T19:49:33.781Z,12.63
2018-11-06T19:52:01.342Z,11.07
2018-11-06T19:54:28.811Z,17.70
2018-11-06T19:56:57.085Z,13.07
2018-11-06T19:59:24.581Z,14.03
2018-11-06T20:01:52.028Z,16.23
2018-11-06T20:04:19.573Z,15.00
2018-11-06T20:06:47.150Z,13.47
2018-11-06T20:09:15.416Z,17.63
2018-11-06T20:11:42.920Z,14.60
2018-11-06T20:14:10.359Z,16.93
2018-11-06T20:16:37.830Z,16.27
2018-11-06T20:19:06.069Z,15.13
2018-11-06T20:21:33.597Z,15.17
2018-11-06T20:24:01.076Z,15.23
2018-11-06T20:26:28.578Z,15.33
2018-11-06T20:28:56.243Z,14.83
2018-11-06T20:31:23.706Z,13.83
2018-11-06T20:33:51.978Z,14.07
2018-11-06T20:36:19.445Z,14.57
2018-11-06T20:38:46.917Z,13.47
2018-11-06T20:41:14.411Z,13.48
2018-11-06T20:43:42.648Z,15.17
2018-11-06T20:46:10.128Z,15.57
2018-11-06T20:48:37.875Z,14.93
2018-11-06T20:51:05.342Z,11.00
2018-11-06T20:53:32.864Z,15.33
2018-11-06T20:56:00.307Z,11.90
2018-11-06T20:58:28.535Z,12.83
2018-11-06T21:00:55.993Z,16.67
2018-11-06T21:03:23.461Z,12.67
2018-11-06T21:05:51.136Z,14.93
2018-11-06T21:08:18.551Z,15.60
2018-11-06T21:10:46.122Z,14.63
2018-11-06T21:13:14.419Z,15.33
2018-11-06T21:15:41.823Z,11.27
2018-11-06T21:18:10.122Z,14.97
2018-11-06T21:20:37.564Z,14.83
2018-11-06T21:23:05.799Z,14.00
2018-11-06T21:25:33.419Z,16.23
2018-11-06T21:28:00.754Z,14.60
2018-11-06T21:30:28.229Z,14.70
2018-11-06T21:32:55.775Z,15.90
2018-11-06T21:35:23.256Z,13.60
2018-11-06T21:37:50.807Z,13.83
2018-11-06T21:40:18.387Z,10.23
2018-11-06T21:42:45.835Z,14.70
2018-11-06T21:45:15.179Z,14.53
2018-11-06T21:47:42.607Z,10.83
2018-11-06T21:50:10.074Z,11.43
2018-11-06T21:52:37.539Z,13.07
2018-11-06T21:55:05.803Z,16.83
2018-11-06T21:57:33.264Z,13.60
2018-11-06T22:00:00.745Z,14.57
2018-11-06T22:02:28.296Z,11.17
2018-11-06T22:04:55.899Z,15.97
2018-11-06T22:07:24.104Z,13.97
2018-11-06T22:09:51.566Z,12.53
2018-11-06T22:12:19.080Z,14.03
2018-11-06T22:14:46.617Z,13.73
2018-11-06T22:17:14.096Z,10.90
2018-11-06T22:19:41.573Z,11.00
2018-11-06T22:22:09.804Z,13.23
2018-11-06T22:24:37.268Z,10.87
2018-11-06T22:27:04.739Z,12.23
2018-11-06T22:29:32.313Z,10.80
2018-11-06T22:31:59.843Z,12.23
2018-11-06T22:34:28.762Z,10.67
2018-11-06T22:36:56.279Z,12.10
2018-11-06T22:39:23.696Z,10.80
2018-11-06T22:41:52.687Z,11.07
2018-11-06T22:44:20.251Z,11.73
2018-11-06T22:46:47.734Z,10.83
2018-11-06T22:49:15.216Z,10.10
2018-11-06T22:51:43.445Z,11.03
2018-11-06T22:54:10.908Z,12.97
2018-11-06T22:56:38.691Z,10.43
2018-11-06T22:59:06.215Z,11.03
2018-11-06T23:01:33.675Z,11.60
2018-11-06T23:04:01.153Z,11.53
2018-11-06T23:06:28.698Z,14.40
2018-11-06T23:08:56.674Z,12.33
2018-11-06T23:11:24.168Z,12.07
2018-11-06T23:13:51.647Z,15.20
2018-11-06T23:16:19.213Z,12.20
2018-11-06T23:18:47.487Z,11.30
2018-11-06T23:21:14.960Z,11.80
2018-11-06T23:23:42.418Z,13.10
2018-11-06T23:26:09.978Z,9.33
2018-11-06T23:28:37.442Z,8.20
2018-11-06T23:31:05.003Z,11.50
2018-11-06T23:33:32.476Z,11.00
2018-11-06T23:36:01.465Z,8.77
2018-11-06T23:38:29.235Z,13.87
2018-11-06T23:40:56.701Z,11.70
2018-11-06T23:43:24.262Z,9.63
2018-11-06T23:45:51.728Z,10.57
2018-11-06T23:48:19.486Z,9.77
2018-11-06T23:50:47.052Z,11.33
2018-11-06T23:53:14.607Z,8.90
2018-11-06T23:55:42.179Z,11.40
2018-11-06T23:58:09.640Z,11.83
